createdAt,value
2022-08-16T00:01:43.889Z,28.45
2022-08-16T00:04:35.287Z,28.58
2022-08-16T00:07:24.812Z,28.72
2022-08-16T00:10:20.668Z,28.77
2022-08-16T00:13:12.200Z,28.81
2022-08-16T00:17:05.886Z,28.84
2022-08-16T00:19:14.760Z,28.88
2022-08-16T00:22:12.775Z,28.96
2022-08-16T00:25:05.310Z,28.99
2022-08-16T00:27:55.138Z,29.08
2022-08-16T00:30:45.223Z,29.16
2022-08-16T00:33:37.377Z,29.24
2022-08-16T00:36:27.634Z,29.32
2022-08-16T00:39:20.111Z,29.39
2022-08-16T00:42:10.951Z,29.46
2022-08-16T00:45:37.549Z,29.56
2022-08-16T00:48:47.900Z,29.56
2022-08-16T00:51:42.742Z,29.62
2022-08-16T00:54:33.822Z,29.68
2022-08-16T00:57:23.968Z,29.74
2022-08-16T01:00:13.991Z,29.76
2022-08-16T01:03:13.934Z,29.79
2022-08-16T01:06:40.592Z,29.86
2022-08-16T01:09:15.689Z,29.89
2022-08-16T01:12:10.570Z,29.94
2022-08-16T01:15:01.152Z,29.97
2022-08-16T01:17:55.805Z,30.00
2022-08-16T01:21:03.342Z,30.07
2022-08-16T01:24:52.397Z,30.15
2022-08-16T01:27:53.361Z,30.28
2022-08-16T01:30:49.800Z,30.29
2022-08-16T01:33:40.145Z,30.38
2022-08-16T01:36:35.679Z,30.44
2022-08-16T01:39:25.934Z,30.49
2022-08-16T01:42:19.286Z,30.40
2022-08-16T01:45:10.528Z,30.48
2022-08-16T01:48:00.447Z,30.52
2022-08-16T01:51:09.465Z,30.45
2022-08-16T01:54:03.235Z,30.53
2022-08-16T01:56:54.327Z,30.58
2022-08-16T01:59:46.295Z,30.57
2022-08-16T02:02:42.541Z,30.64
2022-08-16T02:05:32.415Z,30.60
2022-08-16T02:08:33.050Z,30.62
2022-08-16T02:11:25.682Z,30.66
2022-08-16T02:14:36.512Z,30.75
2022-08-16T02:17:26.245Z,30.76
2022-08-16T02:20:26.193Z,30.78
2022-08-16T02:23:17.443Z,30.75
2022-08-16T02:26:08.793Z,30.75
2022-08-16T02:29:05.350Z,30.76
2022-08-16T02:32:50.365Z,30.79
2022-08-16T02:35:15.217Z,30.85
2022-08-16T02:38:08.913Z,30.86
2022-08-16T02:41:07.282Z,30.86
2022-08-16T02:44:02.820Z,30.93
2022-08-16T02:46:53.789Z,30.96
2022-08-16T02:49:59.121Z,30.99
2022-08-16T02:52:56.315Z,31.07
2022-08-16T02:55:46.336Z,31.07
2022-08-16T02:58:40.622Z,31.11
2022-08-16T03:01:37.760Z,31.22
2022-08-16T03:04:51.234Z,31.29
2022-08-16T03:07:50.458Z,31.37
2022-08-16T03:10:41.726Z,31.38
2022-08-16T03:13:40.493Z,31.41
2022-08-16T03:16:38.939Z,31.45
2022-08-16T03:19:56.542Z,31.47
2022-08-16T03:22:45.786Z,31.48
2022-08-16T03:25:44.020Z,31.49
2022-08-16T03:28:36.559Z,31.51
2022-08-16T03:31:34.706Z,31.55
2022-08-16T03:34:32.509Z,31.62
2022-08-16T03:37:23.188Z,31.67
2022-08-16T03:40:31.785Z,31.79
2022-08-16T03:43:23.502Z,31.81
2022-08-16T03:46:44.997Z,31.85
2022-08-16T03:49:46.449Z,31.89
2022-08-16T03:52:36.966Z,31.96
2022-08-16T03:55:45.521Z,32.11
2022-08-16T03:58:38.398Z,32.10
2022-08-16T04:01:29.881Z,32.17
2022-08-16T04:04:32.449Z,32.23
2022-08-16T04:07:22.622Z,32.24
2022-08-16T04:10:36.329Z,32.23
2022-08-16T04:14:00.745Z,32.29
2022-08-16T04:16:39.342Z,32.30
2022-08-16T04:19:54.774Z,32.27
2022-08-16T04:22:48.879Z,32.38
2022-08-16T04:25:40.653Z,32.46
2022-08-16T04:28:53.193Z,32.51
2022-08-16T04:31:41.782Z,32.51
2022-08-16T04:34:39.644Z,32.50
2022-08-16T04:37:30.870Z,32.47
2022-08-16T04:40:31.434Z,32.59
2022-08-16T04:43:21.758Z,32.63
2022-08-16T04:46:29.944Z,32.70
2022-08-16T04:49:28.375Z,32.71
2022-08-16T04:52:36.341Z,32.74
2022-08-16T04:55:37.553Z,32.74
2022-08-16T04:58:45.275Z,32.86
2022-08-16T05:01:58.856Z,32.85
2022-08-16T05:04:49.728Z,32.95
2022-08-16T05:07:39.285Z,32.96
2022-08-16T05:10:48.899Z,33.02
2022-08-16T05:13:42.860Z,33.03
2022-08-16T05:16:44.277Z,33.07
2022-08-16T05:19:35.899Z,33.12
2022-08-16T05:22:37.728Z,33.18
2022-08-16T05:25:40.688Z,33.24
2022-08-16T05:28:39.054Z,33.31
2022-08-16T05:31:32.580Z,33.35
2022-08-16T05:34:26.594Z,33.35
2022-08-16T05:37:16.630Z,33.34
2022-08-16T05:40:13.074Z,33.40
2022-08-16T05:43:04.005Z,33.46
2022-08-16T05:45:54.781Z,33.41
2022-08-16T05:48:46.095Z,33.37
2022-08-16T05:51:47.957Z,33.38
2022-08-16T05:54:46.821Z,33.45
2022-08-16T05:57:40.521Z,33.42
2022-08-16T06:00:34.379Z,33.47
2022-08-16T06:03:24.522Z,33.50
2022-08-16T06:06:29.011Z,33.49
2022-08-16T06:09:20.800Z,33.54
2022-08-16T06:12:26.946Z,33.56
2022-08-16T06:15:23.011Z,33.59
2022-08-16T06:18:12.653Z,33.61
2022-08-16T06:21:02.545Z,33.62
2022-08-16T06:23:54.304Z,33.63
2022-08-16T06:26:57.715Z,33.63
2022-08-16T06:29:53.290Z,33.68
2022-08-16T06:32:48.489Z,33.71
2022-08-16T06:35:41.707Z,33.73
2022-08-16T06:38:33.756Z,33.77
2022-08-16T06:41:39.841Z,33.78
2022-08-16T06:44:42.119Z,33.81
2022-08-16T06:47:53.747Z,33.84
2022-08-16T06:50:51.516Z,33.91
2022-08-16T06:53:41.955Z,33.99
2022-08-16T06:56:31.693Z,34.05
2022-08-16T06:59:32.133Z,34.09
2022-08-16T07:02:51.687Z,34.16
2022-08-16T07:05:42.512Z,34.25
2022-08-16T07:08:47.829Z,34.31
2022-08-16T07:11:47.545Z,34.34
2022-08-16T07:14:50.460Z,34.38
2022-08-16T07:17:41.353Z,34.43
2022-08-16T07:20:47.043Z,34.45
2022-08-16T07:23:39.329Z,34.44
2022-08-16T07:26:32.498Z,34.50
2022-08-16T07:29:23.450Z,34.52
2022-08-16T07:32:14.302Z,34.56
2022-08-16T07:35:03.968Z,34.59
2022-08-16T07:37:53.268Z,34.55
2022-08-16T07:40:59.507Z,34.52
2022-08-16T07:43:52.642Z,34.49
2022-08-16T07:46:43.869Z,34.50
2022-08-16T07:49:39.285Z,34.55
2022-08-16T07:52:43.861Z,34.52
2022-08-16T07:55:45.620Z,34.51
2022-08-16T07:58:37.719Z,34.45
2022-08-16T08:01:33.388Z,34.27
2022-08-16T08:04:25.187Z,34.25
2022-08-16T08:07:27.490Z,34.19
2022-08-16T08:10:29.390Z,34.13
2022-08-16T08:13:28.916Z,34.11
2022-08-16T08:16:37.966Z,34.11
2022-08-16T08:19:56.488Z,34.11
2022-08-16T08:22:48.879Z,34.04
2022-08-16T08:25:54.537Z,34.08
2022-08-16T08:28:49.569Z,33.98
2022-08-16T08:31:42.580Z,33.92
2022-08-16T08:34:33.763Z,33.85
2022-08-16T08:37:24.557Z,33.72
2022-08-16T08:40:24.233Z,33.68
2022-08-16T08:43:18.917Z,33.65
2022-08-16T08:46:21.349Z,33.62
2022-08-16T08:49:12.623Z,33.69
2022-08-16T08:52:08.188Z,33.68
2022-08-16T08:54:59.990Z,33.64
2022-08-16T08:57:50.601Z,33.62
2022-08-16T09:00:51.304Z,33.57
2022-08-16T09:03:43.111Z,33.54
2022-08-16T09:06:33.980Z,33.51
2022-08-16T09:09:33.730Z,33.48
2022-08-16T09:12:35.468Z,33.50
2022-08-16T09:15:41.247Z,33.48
2022-08-16T09:18:35.227Z,33.45
2022-08-16T09:21:31.367Z,33.49
2022-08-16T09:24:51.598Z,33.50
2022-08-16T09:27:57.098Z,33.49
2022-08-16T09:30:43.948Z,33.49
2022-08-16T09:33:37.185Z,33.48
2022-08-16T09:36:34.376Z,33.46
2022-08-16T09:39:24.755Z,33.45
2022-08-16T09:42:56.183Z,33.42
2022-08-16T09:45:43.915Z,33.45
2022-08-16T09:48:44.194Z,33.43
2022-08-16T09:51:41.249Z,33.37
2022-08-16T09:54:32.593Z,33.39
2022-08-16T09:57:22.796Z,33.40
2022-08-16T10:00:44.560Z,33.39
2022-08-16T10:03:24.711Z,33.39
2022-08-16T10:06:14.755Z,33.39
2022-08-16T10:09:11.237Z,33.36
2022-08-16T10:12:22.071Z,33.29
2022-08-16T10:15:15.858Z,33.30
2022-08-16T10:18:56.093Z,33.30
2022-08-16T10:21:19.342Z,33.28
2022-08-16T10:24:12.281Z,33.26
2022-08-16T10:27:27.149Z,33.26
2022-08-16T10:30:28.397Z,33.26
2022-08-16T10:33:18.791Z,33.25
2022-08-16T10:36:10.284Z,33.26
2022-08-16T10:39:01.284Z,33.24
2022-08-16T10:41:52.365Z,33.25
2022-08-16T10:44:42.941Z,33.22
2022-08-16T10:47:44.108Z,33.21
2022-08-16T10:50:34.211Z,33.19
2022-08-16T10:53:26.162Z,33.20
2022-08-16T10:56:52.218Z,33.19
2022-08-16T10:59:54.459Z,33.16
2022-08-16T11:03:41.635Z,33.16
2022-08-16T11:05:59.488Z,33.18
2022-08-16T11:09:21.010Z,33.13
2022-08-16T11:12:14.766Z,33.15
2022-08-16T11:15:13.540Z,33.12
2022-08-16T11:18:48.503Z,33.15
2022-08-16T11:21:28.644Z,33.12
2022-08-16T11:24:40.069Z,33.07
2022-08-16T11:27:32.797Z,33.08
2022-08-16T11:30:28.292Z,33.05
2022-08-16T11:36:38.625Z,33.05
2022-08-16T11:39:43.706Z,33.05
2022-08-16T11:42:37.538Z,33.02
2022-08-16T11:45:27.262Z,33.01
2022-08-16T11:48:23.655Z,32.99
2022-08-16T11:51:13.365Z,32.96
2022-08-16T11:54:05.083Z,32.97
2022-08-16T11:56:58.623Z,32.98
2022-08-16T11:59:48.888Z,32.96
2022-08-16T12:02:39.699Z,32.97
2022-08-16T12:05:36.600Z,32.97
2022-08-16T12:08:29.366Z,32.96
2022-08-16T12:11:19.753Z,32.95
2022-08-16T12:14:12.648Z,32.94
2022-08-16T12:17:04.655Z,32.93
2022-08-16T12:19:55.585Z,32.91
2022-08-16T12:22:47.107Z,32.92
2022-08-16T12:25:37.767Z,32.90
2022-08-16T12:28:52.124Z,32.88
2022-08-16T12:31:37.751Z,32.86
2022-08-16T12:34:50.421Z,32.86
2022-08-16T12:37:46.229Z,32.84
2022-08-16T12:40:41.873Z,32.82
2022-08-16T12:43:32.824Z,32.80
2022-08-16T12:46:22.252Z,32.80
2022-08-16T12:49:12.891Z,32.84
2022-08-16T12:52:02.744Z,32.77
2022-08-16T12:54:55.011Z,32.76
2022-08-16T12:57:45.838Z,32.77
2022-08-16T13:00:50.155Z,32.73
2022-08-16T13:03:42.313Z,32.74
2022-08-16T13:06:33.566Z,32.74
2022-08-16T13:09:29.050Z,32.71
2022-08-16T13:12:25.440Z,32.72
2022-08-16T13:15:18.707Z,32.70
2022-08-16T13:18:27.040Z,32.69
2022-08-16T13:21:24.166Z,32.69
2022-08-16T13:24:15.689Z,32.67
2022-08-16T13:27:06.914Z,32.69
2022-08-16T13:29:57.975Z,32.65
2022-08-16T13:32:52.132Z,32.64
2022-08-16T13:35:44.547Z,32.61
2022-08-16T13:38:37.984Z,32.62
2022-08-16T13:41:29.984Z,32.59
2022-08-16T13:44:20.889Z,32.57
2022-08-16T13:47:10.895Z,32.57
2022-08-16T13:50:05.531Z,32.48
2022-08-16T13:52:57.864Z,32.40
2022-08-16T13:55:48.827Z,31.90
2022-08-16T13:58:54.574Z,31.81
2022-08-16T14:01:45.754Z,31.61
2022-08-16T14:04:37.329Z,31.38
2022-08-16T14:07:27.492Z,31.31
2022-08-16T14:10:21.211Z,31.17
2022-08-16T14:13:19.747Z,31.07
2022-08-16T14:16:23.527Z,30.99
2022-08-16T14:19:19.543Z,30.93
2022-08-16T14:22:31.356Z,30.89
2022-08-16T14:25:27.568Z,30.81
2022-08-16T14:28:19.243Z,30.81
2022-08-16T14:31:13.089Z,30.74
2022-08-16T14:34:05.745Z,30.67
2022-08-16T14:37:02.594Z,30.62
2022-08-16T14:39:52.573Z,30.66
2022-08-16T14:42:44.215Z,30.77
2022-08-16T14:45:33.978Z,30.76
2022-08-16T14:48:25.954Z,30.81
2022-08-16T14:51:17.245Z,30.82
2022-08-16T14:54:11.339Z,30.78
2022-08-16T14:57:01.603Z,30.79
2022-08-16T14:59:53.741Z,30.79
2022-08-16T15:02:46.441Z,30.78
2022-08-16T15:05:39.038Z,30.78
2022-08-16T15:08:36.739Z,30.79
2022-08-16T15:11:26.974Z,30.79
2022-08-16T15:14:17.610Z,30.76
2022-08-16T15:17:11.532Z,30.72
2022-08-16T15:20:04.639Z,30.73
2022-08-16T15:23:00.962Z,30.76
2022-08-16T15:26:02.945Z,30.72
2022-08-16T15:28:56.042Z,30.70
2022-08-16T15:31:49.137Z,30.69
2022-08-16T15:34:50.954Z,30.71
2022-08-16T15:37:54.733Z,30.75
2022-08-16T15:40:58.555Z,30.70
2022-08-16T15:43:48.342Z,30.68
2022-08-16T15:47:02.943Z,30.71
2022-08-16T15:49:56.126Z,30.69
2022-08-16T15:52:46.250Z,30.70
2022-08-16T15:55:36.479Z,30.63
2022-08-16T15:58:35.021Z,30.63
2022-08-16T16:01:28.140Z,30.64
2022-08-16T16:04:22.980Z,30.63
2022-08-16T16:07:14.784Z,30.65
2022-08-16T16:10:13.408Z,30.61
2022-08-16T16:13:08.880Z,30.63
2022-08-16T16:16:01.820Z,30.58
2022-08-16T16:18:52.434Z,30.62
2022-08-16T16:21:42.100Z,30.61
2022-08-16T16:24:32.008Z,30.61
2022-08-16T16:27:27.957Z,30.59
2022-08-16T16:30:33.198Z,30.60
2022-08-16T16:33:30.911Z,30.56
2022-08-16T16:36:25.547Z,30.60
2022-08-16T16:39:18.021Z,30.57
2022-08-16T16:42:25.456Z,30.55
2022-08-16T16:45:23.464Z,30.50
2022-08-16T16:48:17.387Z,30.50
2022-08-16T16:51:10.126Z,30.53
2022-08-16T16:54:03.611Z,30.53
2022-08-16T16:56:53.842Z,30.44
2022-08-16T16:59:43.801Z,30.48
2022-08-16T17:02:46.180Z,30.42
2022-08-16T17:05:40.624Z,30.43
2022-08-16T17:08:29.819Z,30.39
2022-08-16T17:11:19.583Z,30.35
2022-08-16T17:14:27.591Z,30.35
2022-08-16T17:17:20.053Z,30.31
2022-08-16T17:20:12.855Z,30.28
2022-08-16T17:23:03.445Z,30.23
2022-08-16T17:25:54.053Z,30.22
2022-08-16T17:28:59.748Z,30.18
2022-08-16T17:31:51.697Z,30.17
2022-08-16T17:34:46.559Z,30.14
2022-08-16T17:37:51.228Z,30.13
2022-08-16T17:40:58.140Z,30.10
2022-08-16T17:43:48.116Z,30.08
2022-08-16T17:46:51.579Z,30.03
2022-08-16T17:49:45.204Z,30.06
2022-08-16T17:52:36.522Z,29.99
2022-08-16T17:55:42.561Z,30.02
2022-08-16T17:58:32.543Z,30.03
2022-08-16T18:01:25.489Z,29.97
2022-08-16T18:04:45.332Z,29.95
2022-08-16T18:07:25.538Z,29.97
2022-08-16T18:10:30.385Z,29.94
2022-08-16T18:13:23.731Z,29.91
2022-08-16T18:16:16.052Z,29.96
2022-08-16T18:19:05.601Z,29.90
2022-08-16T18:22:16.756Z,29.90
2022-08-16T18:25:07.771Z,29.88
2022-08-16T18:28:00.333Z,29.86
2022-08-16T18:30:51.970Z,29.87
2022-08-16T18:33:44.018Z,29.88
2022-08-16T18:36:34.758Z,29.89
2022-08-16T18:39:24.695Z,29.88
2022-08-16T18:42:16.336Z,29.85
2022-08-16T18:45:07.050Z,29.81
2022-08-16T18:47:56.315Z,29.83
2022-08-16T18:53:58.920Z,29.80
2022-08-16T18:56:56.850Z,29.80
2022-08-16T18:59:47.493Z,29.68
2022-08-16T19:02:56.159Z,29.70
2022-08-16T19:05:56.694Z,29.72
2022-08-16T19:08:46.926Z,29.71
2022-08-16T19:11:36.639Z,29.67
2022-08-16T19:14:31.346Z,29.69
2022-08-16T19:17:21.076Z,29.65
2022-08-16T19:20:11.691Z,29.69
2022-08-16T19:23:05.361Z,29.61
2022-08-16T19:26:02.521Z,29.60
2022-08-16T19:28:59.581Z,29.61
2022-08-16T19:31:49.504Z,29.62
2022-08-16T19:34:38.721Z,29.62
2022-08-16T19:37:28.642Z,29.58
2022-08-16T19:40:37.398Z,29.56
2022-08-16T19:43:27.141Z,29.54
2022-08-16T19:46:16.570Z,29.58
2022-08-16T19:49:07.366Z,29.56
2022-08-16T19:51:56.473Z,29.56
2022-08-16T19:54:46.923Z,29.53
2022-08-16T19:57:38.291Z,29.50
2022-08-16T20:00:35.477Z,29.54
2022-08-16T20:03:26.066Z,29.54
2022-08-16T20:06:32.108Z,29.51
2022-08-16T20:09:25.684Z,29.54
2022-08-16T20:12:26.503Z,29.55
2022-08-16T20:15:19.209Z,29.50
2022-08-16T20:18:21.476Z,29.47
2022-08-16T20:21:16.010Z,29.49
2022-08-16T20:24:32.806Z,29.48
2022-08-16T20:27:15.474Z,29.49
2022-08-16T20:30:07.446Z,29.46
2022-08-16T20:32:57.463Z,29.44
2022-08-16T20:35:49.974Z,29.46
2022-08-16T20:38:43.934Z,29.43
2022-08-16T20:41:33.899Z,29.40
2022-08-16T20:44:25.022Z,29.42
2022-08-16T20:47:17.846Z,29.41
2022-08-16T20:50:08.807Z,29.42
2022-08-16T20:52:58.707Z,29.40
2022-08-16T20:55:48.027Z,29.41
2022-08-16T20:58:38.785Z,29.41
2022-08-16T21:01:45.496Z,29.41
2022-08-16T21:04:36.680Z,29.35
2022-08-16T21:07:26.394Z,29.35
2022-08-16T21:10:15.527Z,29.39
2022-08-16T21:13:05.436Z,29.38
2022-08-16T21:16:03.990Z,29.36
2022-08-16T21:18:53.985Z,29.36
2022-08-16T21:21:43.431Z,29.34
2022-08-16T21:24:33.173Z,29.33
2022-08-16T21:27:24.347Z,29.39
2022-08-16T21:30:15.580Z,29.36
2022-08-16T21:33:15.664Z,29.35
2022-08-16T21:36:05.541Z,29.35
2022-08-16T21:38:57.495Z,29.35
2022-08-16T21:41:46.623Z,29.35
2022-08-16T21:44:38.872Z,29.30
2022-08-16T21:47:29.027Z,29.30
2022-08-16T21:50:20.885Z,29.31
2022-08-16T21:53:15.336Z,29.30
2022-08-16T21:56:06.038Z,29.29
2022-08-16T21:58:55.650Z,29.31
2022-08-16T22:01:45.840Z,29.26
2022-08-16T22:04:38.779Z,29.29
2022-08-16T22:07:28.951Z,29.31
2022-08-16T22:11:05.079Z,29.32
2022-08-16T22:13:29.551Z,29.31
2022-08-16T22:16:20.516Z,29.30
2022-08-16T22:19:10.900Z,29.32
2022-08-16T22:22:02.683Z,29.29
2022-08-16T22:24:51.990Z,29.30
2022-08-16T22:27:44.746Z,29.28
2022-08-16T22:30:34.749Z,29.33
2022-08-16T22:33:27.195Z,29.30
2022-08-16T22:36:17.156Z,29.30
2022-08-16T22:39:10.149Z,29.28
2022-08-16T22:42:00.268Z,29.33
2022-08-16T22:44:52.840Z,29.30
2022-08-16T22:47:43.090Z,29.37
2022-08-16T22:50:33.876Z,29.33
2022-08-16T22:53:23.772Z,29.33
2022-08-16T22:56:13.930Z,29.36
2022-08-16T22:59:03.235Z,29.37
2022-08-16T23:01:54.058Z,29.38
2022-08-16T23:04:43.915Z,29.39
2022-08-16T23:07:33.495Z,29.44
2022-08-16T23:10:24.072Z,29.44
2022-08-16T23:13:13.947Z,29.42
2022-08-16T23:16:10.851Z,29.49
2022-08-16T23:19:03.053Z,29.46
2022-08-16T23:21:54.182Z,29.49
2022-08-16T23:24:55.819Z,29.49
2022-08-16T23:27:47.039Z,29.57
2022-08-16T23:30:38.896Z,29.56
2022-08-16T23:33:30.889Z,29.58
2022-08-16T23:36:20.127Z,29.52
2022-08-16T23:39:13.468Z,29.58
2022-08-16T23:42:03.258Z,29.62
2022-08-16T23:44:58.277Z,29.66
2022-08-16T23:47:49.051Z,29.74
2022-08-16T23:50:40.210Z,29.79
2022-08-16T23:53:33.845Z,29.84
2022-08-16T23:56:24.167Z,29.89
2022-08-16T23:59:13.667Z,29.91
